createdAt,value
2018-09-09T00:01:54.388Z,13.80
2018-09-09T00:04:23.626Z,13.80
2018-09-09T00:06:52.940Z,13.80
2018-09-09T00:09:39.116Z,13.80
2018-09-09T00:12:10.157Z,13.90
2018-09-09T00:14:39.649Z,13.70
2018-09-09T00:17:10.838Z,13.80
2018-09-09T00:19:44.060Z,13.80
2018-09-09T00:22:14.074Z,13.60
2018-09-09T00:24:43.036Z,13.60
2018-09-09T00:27:11.852Z,13.60
2018-09-09T00:29:40.767Z,13.60
2018-09-09T00:32:10.042Z,13.50
2018-09-09T00:34:39.226Z,13.50
2018-09-09T00:37:08.241Z,13.40
2018-09-09T00:39:38.546Z,13.40
2018-09-09T00:42:07.519Z,13.50
2018-09-09T00:44:36.504Z,13.50
2018-09-09T00:47:10.732Z,13.40
2018-09-09T00:49:45.135Z,13.40
2018-09-09T00:52:20.064Z,13.50
2018-09-09T00:54:49.132Z,13.50
2018-09-09T00:57:18.236Z,13.50
2018-09-09T00:59:46.901Z,13.50
2018-09-09T01:02:15.616Z,13.60
2018-09-09T01:04:44.751Z,13.60
2018-09-09T01:07:13.534Z,13.60
2018-09-09T01:09:41.986Z,13.50
2018-09-09T01:12:12.482Z,13.50
2018-09-09T01:14:41.365Z,13.50
2018-09-09T01:17:10.375Z,13.50
2018-09-09T01:19:39.349Z,13.50
2018-09-09T01:22:08.150Z,13.40
2018-09-09T01:24:36.877Z,13.40
2018-09-09T01:27:05.670Z,13.40
2018-09-09T01:29:34.388Z,13.30
2018-09-09T01:32:03.586Z,13.30
2018-09-09T01:34:32.782Z,13.30
2018-09-09T01:37:01.729Z,13.30
2018-09-09T01:39:30.775Z,13.20
2018-09-09T01:41:59.659Z,13.20
2018-09-09T01:44:29.407Z,13.20
2018-09-09T01:46:58.283Z,13.20
2018-09-09T01:49:26.861Z,13.10
2018-09-09T01:51:55.754Z,13.20
2018-09-09T01:54:25.056Z,13.20
2018-09-09T01:56:54.532Z,13.20
2018-09-09T01:59:23.489Z,13.10
2018-09-09T02:01:52.578Z,13.10
2018-09-09T02:04:22.618Z,13.10
2018-09-09T02:06:51.999Z,13.10
2018-09-09T02:09:21.696Z,13.10
2018-09-09T02:11:50.342Z,13.10
2018-09-09T02:14:18.882Z,13.20
2018-09-09T02:16:47.622Z,13.10
2018-09-09T02:19:16.243Z,13.10
2018-09-09T02:21:44.937Z,13.10
2018-09-09T02:24:13.424Z,13.00
2018-09-09T02:26:42.216Z,13.00
2018-09-09T02:29:11.138Z,12.90
2018-09-09T02:31:39.887Z,13.00
2018-09-09T02:34:09.014Z,13.00
2018-09-09T02:36:37.709Z,13.00
2018-09-09T02:39:09.298Z,13.00
2018-09-09T02:41:38.692Z,12.90
2018-09-09T02:44:07.661Z,12.90
2018-09-09T02:46:36.416Z,13.00
2018-09-09T02:49:05.146Z,13.00
2018-09-09T02:51:33.723Z,13.00
2018-09-09T02:54:02.530Z,13.00
2018-09-09T02:56:33.078Z,13.00
2018-09-09T02:59:02.051Z,13.00
2018-09-09T03:01:31.074Z,12.80
2018-09-09T03:03:59.758Z,12.80
2018-09-09T03:06:28.611Z,12.80
2018-09-09T03:08:57.003Z,12.90
2018-09-09T03:11:26.183Z,12.80
2018-09-09T03:13:54.696Z,12.80
2018-09-09T03:16:23.329Z,12.80
2018-09-09T03:18:51.780Z,12.80
2018-09-09T03:21:20.520Z,12.80
2018-09-09T03:23:49.734Z,12.80
2018-09-09T03:26:18.419Z,12.80
2018-09-09T03:28:47.260Z,12.70
2018-09-09T03:31:15.745Z,12.80
2018-09-09T03:33:44.824Z,12.80
2018-09-09T03:36:13.778Z,12.80
2018-09-09T03:38:42.409Z,12.80
2018-09-09T03:41:12.020Z,12.90
2018-09-09T03:43:40.638Z,12.80
2018-09-09T03:46:09.697Z,12.80
2018-09-09T03:48:38.972Z,12.70
2018-09-09T03:51:07.635Z,12.80
2018-09-09T03:53:36.512Z,12.80
2018-09-09T03:56:06.355Z,12.80
2018-09-09T03:58:35.379Z,12.80
2018-09-09T04:01:04.111Z,12.80
2018-09-09T04:03:32.715Z,12.80
2018-09-09T04:06:01.397Z,12.80
2018-09-09T04:08:29.973Z,12.70
2018-09-09T04:10:58.593Z,12.70
2018-09-09T04:13:27.318Z,12.70
2018-09-09T04:15:56.086Z,12.70
2018-09-09T04:18:24.754Z,12.70
2018-09-09T04:20:53.548Z,12.70
2018-09-09T04:23:22.967Z,12.60
2018-09-09T04:25:51.995Z,12.60
2018-09-09T04:28:21.018Z,12.50
2018-09-09T04:30:49.940Z,12.50
2018-09-09T04:33:18.574Z,12.60
2018-09-09T04:35:47.249Z,12.60
2018-09-09T04:38:16.752Z,12.60
2018-09-09T04:40:45.599Z,12.60
2018-09-09T04:43:14.595Z,12.50
2018-09-09T04:45:43.417Z,12.60
2018-09-09T04:48:14.218Z,12.60
2018-09-09T04:50:43.154Z,12.60
2018-09-09T04:53:12.263Z,12.60
2018-09-09T04:55:41.134Z,12.60
2018-09-09T04:58:10.183Z,12.50
2018-09-09T05:00:38.958Z,12.50
2018-09-09T05:03:07.766Z,12.50
2018-09-09T05:05:36.430Z,12.50
2018-09-09T05:08:05.114Z,12.60
2018-09-09T05:10:33.895Z,12.60
2018-09-09T05:13:02.592Z,12.70
2018-09-09T05:15:31.412Z,12.60
2018-09-09T05:18:00.233Z,12.70
2018-09-09T05:20:28.917Z,12.60
2018-09-09T05:22:58.025Z,12.70
2018-09-09T05:25:27.853Z,12.60
2018-09-09T05:27:56.508Z,12.70
2018-09-09T05:30:25.384Z,12.80
2018-09-09T05:32:54.355Z,12.70
2018-09-09T05:35:24.282Z,12.80
2018-09-09T05:37:53.186Z,12.80
2018-09-09T05:40:21.726Z,12.90
2018-09-09T05:42:50.393Z,12.90
2018-09-09T05:45:18.980Z,12.90
2018-09-09T05:47:47.798Z,12.90
2018-09-09T05:50:17.042Z,13.00
2018-09-09T05:52:45.875Z,13.00
2018-09-09T05:55:14.469Z,13.00
2018-09-09T05:57:42.993Z,13.00
2018-09-09T06:00:11.815Z,13.10
2018-09-09T06:02:41.277Z,13.10
2018-09-09T06:05:14.220Z,13.20
2018-09-09T06:07:42.941Z,13.30
2018-09-09T06:10:12.821Z,13.30
2018-09-09T06:12:41.967Z,13.20
2018-09-09T06:15:10.873Z,13.20
2018-09-09T06:17:40.900Z,13.30
2018-09-09T06:20:10.550Z,13.40
2018-09-09T06:22:39.836Z,13.40
2018-09-09T06:25:08.727Z,13.40
2018-09-09T06:27:38.297Z,13.50
2018-09-09T06:30:07.608Z,13.60
2018-09-09T06:32:37.178Z,13.60
2018-09-09T06:35:06.594Z,13.60
2018-09-09T06:37:35.845Z,13.70
2018-09-09T06:40:05.119Z,13.70
2018-09-09T06:42:33.896Z,13.70
2018-09-09T06:45:02.687Z,13.80
2018-09-09T06:47:31.384Z,13.80
2018-09-09T06:50:00.091Z,13.90
2018-09-09T06:52:28.580Z,13.90
2018-09-09T06:54:57.332Z,14.00
2018-09-09T06:57:26.495Z,14.10
2018-09-09T06:59:58.310Z,14.20
2018-09-09T07:02:27.715Z,14.30
2018-09-09T07:04:56.632Z,14.30
2018-09-09T07:07:26.242Z,14.40
2018-09-09T07:09:55.856Z,14.50
2018-09-09T07:12:31.970Z,14.50
2018-09-09T07:15:01.624Z,14.60
2018-09-09T07:17:30.938Z,14.70
2018-09-09T07:19:59.754Z,14.70
2018-09-09T07:22:28.670Z,14.80
2018-09-09T07:24:57.752Z,14.90
2018-09-09T07:27:27.828Z,14.90
2018-09-09T07:30:05.235Z,15.10
2018-09-09T07:32:34.311Z,15.20
2018-09-09T07:35:03.403Z,15.30
2018-09-09T07:37:32.173Z,15.40
2018-09-09T07:40:01.487Z,15.60
2018-09-09T07:42:30.955Z,15.70
2018-09-09T07:44:59.782Z,15.80
2018-09-09T07:47:28.667Z,16.00
2018-09-09T07:49:57.761Z,16.10
2018-09-09T07:52:29.970Z,16.20
2018-09-09T07:54:59.681Z,16.40
2018-09-09T07:57:31.095Z,16.50
2018-09-09T08:00:00.255Z,16.50
2018-09-09T08:02:29.119Z,16.70
2018-09-09T08:04:58.057Z,16.80
2018-09-09T08:07:27.304Z,16.80
2018-09-09T08:09:56.399Z,16.90
2018-09-09T08:12:25.419Z,16.90
2018-09-09T08:14:54.422Z,17.00
2018-09-09T08:17:24.562Z,17.00
2018-09-09T08:19:54.044Z,17.10
2018-09-09T08:22:23.269Z,17.20
2018-09-09T08:24:52.632Z,17.20
2018-09-09T08:27:22.857Z,17.20
2018-09-09T08:29:52.267Z,17.30
2018-09-09T08:32:21.695Z,17.30
2018-09-09T08:34:50.603Z,17.40
2018-09-09T08:37:19.871Z,17.50
2018-09-09T08:39:52.577Z,17.60
2018-09-09T08:42:21.592Z,17.70
2018-09-09T08:44:51.112Z,17.90
2018-09-09T08:47:22.414Z,18.00
2018-09-09T08:49:51.522Z,18.00
2018-09-09T08:52:20.426Z,18.00
2018-09-09T08:54:49.171Z,18.00
2018-09-09T08:57:20.875Z,18.10
2018-09-09T08:59:55.947Z,18.30
2018-09-09T09:02:34.414Z,18.30
2018-09-09T09:05:07.078Z,18.30
2018-09-09T09:07:36.164Z,18.40
2018-09-09T09:10:07.558Z,18.50
2018-09-09T09:12:37.770Z,18.50
2018-09-09T09:15:06.705Z,18.60
2018-09-09T09:17:36.013Z,18.70
2018-09-09T09:20:08.550Z,18.90
2018-09-09T09:22:43.750Z,19.20
2018-09-09T09:25:23.567Z,19.30
2018-09-09T09:27:52.689Z,19.40
2018-09-09T09:30:24.299Z,19.50
2018-09-09T09:32:54.307Z,19.60
2018-09-09T09:35:28.135Z,19.70
2018-09-09T09:38:00.401Z,19.80
2018-09-09T09:40:29.933Z,19.80
2018-09-09T09:42:59.249Z,19.70
2018-09-09T09:45:28.736Z,19.70
2018-09-09T09:48:07.107Z,19.70
2018-09-09T09:50:39.832Z,19.80
2018-09-09T09:53:11.031Z,19.80
2018-09-09T09:55:40.393Z,19.80
2018-09-09T09:58:10.509Z,19.80
2018-09-09T10:00:48.414Z,19.90
2018-09-09T10:03:17.863Z,20.00
2018-09-09T10:05:48.206Z,20.10
2018-09-09T10:08:19.456Z,20.10
2018-09-09T10:10:54.926Z,20.20
2018-09-09T10:13:25.552Z,20.20
2018-09-09T10:15:55.251Z,20.20
2018-09-09T10:18:33.161Z,20.40
2018-09-09T10:21:02.671Z,20.50
2018-09-09T10:23:31.524Z,20.60
2018-09-09T10:26:02.066Z,20.70
2018-09-09T10:28:34.815Z,20.70
2018-09-09T10:31:04.323Z,20.70
2018-09-09T10:33:34.909Z,20.90
2018-09-09T10:36:06.245Z,21.00
2018-09-09T10:38:35.260Z,21.00
2018-09-09T10:41:13.770Z,21.10
2018-09-09T10:43:45.829Z,21.20
2018-09-09T10:46:14.986Z,21.20
2018-09-09T10:48:47.992Z,21.20
2018-09-09T10:51:17.612Z,21.30
2018-09-09T10:53:47.420Z,21.30
2018-09-09T10:56:16.566Z,21.30
2018-09-09T10:58:46.115Z,21.40
2018-09-09T11:01:15.009Z,21.30
2018-09-09T11:03:43.933Z,21.30
2018-09-09T11:06:12.568Z,21.30
2018-09-09T11:08:41.114Z,21.20
2018-09-09T11:11:09.780Z,21.10
2018-09-09T11:13:38.393Z,21.10
2018-09-09T11:16:08.810Z,21.20
2018-09-09T11:18:37.380Z,21.30
2018-09-09T11:21:06.435Z,21.30
2018-09-09T11:23:35.579Z,21.30
2018-09-09T11:26:07.555Z,21.30
2018-09-09T11:28:36.132Z,21.30
2018-09-09T11:31:05.618Z,21.20
2018-09-09T11:33:34.808Z,21.20
2018-09-09T11:36:03.802Z,21.20
2018-09-09T11:38:33.429Z,21.00
2018-09-09T11:41:02.396Z,20.90
2018-09-09T11:43:31.304Z,20.90
2018-09-09T11:46:00.240Z,21.00
2018-09-09T11:48:29.803Z,21.00
2018-09-09T11:50:58.874Z,21.10
2018-09-09T11:53:27.725Z,21.20
2018-09-09T11:55:56.851Z,21.30
2018-09-09T11:58:25.560Z,21.30
2018-09-09T12:00:54.853Z,21.20
2018-09-09T12:03:23.406Z,21.20
2018-09-09T12:05:52.193Z,21.00
2018-09-09T12:08:21.145Z,20.90
2018-09-09T12:10:50.006Z,20.80
2018-09-09T12:13:18.841Z,20.80
2018-09-09T12:15:48.859Z,21.00
2018-09-09T12:18:18.203Z,21.10
2018-09-09T12:20:47.022Z,21.30
2018-09-09T12:23:16.034Z,21.50
2018-09-09T12:25:45.042Z,21.50
2018-09-09T12:28:13.867Z,21.40
2018-09-09T12:30:42.900Z,21.40
2018-09-09T12:33:12.003Z,21.20
2018-09-09T12:35:41.170Z,21.20
2018-09-09T12:38:10.141Z,21.20
2018-09-09T12:40:39.046Z,21.30
2018-09-09T12:43:13.171Z,21.40
2018-09-09T12:45:47.118Z,21.40
2018-09-09T12:48:21.577Z,21.60
2018-09-09T12:50:50.399Z,21.70
2018-09-09T12:53:18.986Z,21.80
2018-09-09T12:55:48.312Z,21.90
2018-09-09T12:58:17.164Z,21.90
2018-09-09T13:00:46.169Z,21.90
2018-09-09T13:03:14.764Z,22.00
2018-09-09T13:05:43.354Z,21.90
2018-09-09T13:08:11.960Z,21.90
2018-09-09T13:10:41.289Z,22.00
2018-09-09T13:13:16.811Z,22.00
2018-09-09T13:15:45.829Z,22.00
2018-09-09T13:18:14.701Z,22.00
2018-09-09T13:20:43.503Z,22.10
2018-09-09T13:23:12.405Z,22.10
2018-09-09T13:25:41.232Z,22.30
2018-09-09T13:28:10.148Z,22.30
2018-09-09T13:30:38.893Z,22.20
2018-09-09T13:33:07.599Z,22.20
2018-09-09T13:35:36.485Z,22.20
2018-09-09T13:38:05.273Z,22.20
2018-09-09T13:40:33.968Z,22.30
2018-09-09T13:43:02.746Z,22.40
2018-09-09T13:45:31.759Z,22.40
2018-09-09T13:48:00.308Z,22.40
2018-09-09T13:50:29.510Z,22.50
2018-09-09T13:53:00.877Z,22.50
2018-09-09T13:55:30.237Z,22.40
2018-09-09T13:57:59.286Z,22.40
2018-09-09T14:00:28.292Z,22.40
2018-09-09T14:02:57.124Z,22.50
2018-09-09T14:05:28.179Z,22.60
2018-09-09T14:07:57.523Z,22.60
2018-09-09T14:10:26.922Z,22.70
2018-09-09T14:12:56.088Z,22.70
2018-09-09T14:15:31.194Z,22.70
2018-09-09T14:17:59.987Z,22.80
2018-09-09T14:20:28.838Z,22.70
2018-09-09T14:22:57.502Z,22.90
2018-09-09T14:25:26.761Z,22.90
2018-09-09T14:27:55.671Z,22.90
2018-09-09T14:30:24.397Z,22.90
2018-09-09T14:32:53.453Z,22.90
2018-09-09T14:35:22.901Z,22.80
2018-09-09T14:37:51.712Z,22.80
2018-09-09T14:40:21.264Z,22.80
2018-09-09T14:42:50.416Z,22.80
2018-09-09T14:45:19.043Z,22.80
2018-09-09T14:47:47.749Z,22.90
2018-09-09T14:50:17.037Z,22.90
2018-09-09T14:52:45.974Z,22.90
2018-09-09T14:55:15.191Z,22.90
2018-09-09T15:03:01.511Z,22.80
2018-09-09T15:05:30.596Z,22.90
2018-09-09T15:07:59.658Z,22.80
2018-09-09T15:10:30.738Z,22.70
2018-09-09T15:12:59.743Z,22.80
2018-09-09T15:15:30.328Z,22.80
2018-09-09T15:17:59.498Z,22.80
2018-09-09T15:20:29.183Z,22.90
2018-09-09T15:22:58.429Z,22.90
2018-09-09T15:25:27.292Z,23.00
2018-09-09T15:27:56.606Z,22.90
2018-09-09T15:30:26.088Z,22.90
2018-09-09T15:32:55.172Z,22.90
2018-09-09T15:35:25.342Z,22.90
2018-09-09T15:37:54.152Z,23.00
2018-09-09T15:40:22.893Z,23.00
2018-09-09T15:42:51.768Z,22.90
2018-09-09T15:45:20.903Z,22.90
2018-09-09T15:47:49.755Z,22.90
2018-09-09T15:50:18.606Z,22.90
2018-09-09T15:52:47.757Z,22.90
2018-09-09T15:55:16.663Z,22.90
2018-09-09T15:57:45.666Z,23.00
2018-09-09T16:00:14.737Z,22.90
2018-09-09T16:02:46.167Z,22.90
2018-09-09T16:05:15.249Z,22.80
2018-09-09T16:07:44.896Z,22.80
2018-09-09T16:10:16.074Z,22.80
2018-09-09T16:12:46.489Z,22.90
2018-09-09T16:15:23.595Z,22.90
2018-09-09T16:17:59.841Z,23.00
2018-09-09T16:20:30.004Z,23.00
2018-09-09T16:22:59.660Z,23.10
2018-09-09T16:25:33.125Z,23.20
2018-09-09T16:28:02.590Z,23.40
2018-09-09T16:30:31.958Z,23.60
2018-09-09T16:33:00.871Z,23.90
2018-09-09T16:35:29.825Z,24.20
2018-09-09T16:37:58.938Z,24.60
2018-09-09T16:40:27.824Z,24.90
2018-09-09T16:42:56.898Z,25.40
2018-09-09T16:45:25.640Z,26.20
2018-09-09T16:47:54.468Z,26.90
2018-09-09T17:35:27.561Z,27.70
2018-09-09T17:38:00.468Z,20.80
2018-09-09T17:43:15.582Z,20.50
2018-09-09T17:45:45.540Z,20.40
2018-09-09T17:48:23.669Z,20.30
2018-09-09T17:51:15.076Z,20.20
2018-09-09T17:53:44.503Z,20.00
2018-09-09T17:56:13.839Z,19.80
2018-09-09T17:58:42.714Z,19.70
2018-09-09T18:01:13.313Z,19.60
2018-09-09T18:03:42.502Z,19.50
2018-09-09T18:06:11.689Z,19.40
2018-09-09T18:08:41.199Z,19.30
2018-09-09T18:11:10.657Z,19.20
2018-09-09T18:13:41.242Z,19.10
2018-09-09T18:16:10.179Z,19.00
2018-09-09T18:18:40.100Z,18.90
2018-09-09T18:21:09.135Z,18.80
2018-09-09T18:23:37.666Z,18.70
2018-09-09T18:26:06.490Z,18.60
2018-09-09T18:28:35.788Z,18.70
2018-09-09T18:31:04.957Z,18.60
2018-09-09T18:33:33.951Z,18.50
2018-09-09T18:36:02.773Z,18.30
2018-09-09T18:38:31.949Z,18.30
2018-09-09T18:41:00.896Z,18.30
2018-09-09T18:43:29.552Z,18.20
2018-09-09T18:45:58.766Z,18.20
2018-09-09T18:48:29.460Z,18.20
2018-09-09T18:50:58.628Z,18.10
2018-09-09T18:53:27.780Z,18.00
2018-09-09T18:55:56.620Z,17.80
2018-09-09T18:58:26.379Z,17.70
2018-09-09T19:00:55.607Z,17.60
2018-09-09T19:03:26.167Z,17.60
2018-09-09T19:05:55.581Z,17.60
2018-09-09T19:08:26.592Z,17.50
2018-09-09T19:10:55.517Z,17.60
2018-09-09T19:13:25.365Z,17.60
2018-09-09T19:15:54.399Z,17.60
2018-09-09T19:18:23.254Z,17.60
2018-09-09T19:20:52.013Z,17.60
2018-09-09T19:23:21.087Z,17.50
2018-09-09T19:25:49.738Z,17.30
2018-09-09T19:28:18.925Z,17.30
2018-09-09T19:30:48.600Z,17.20
2018-09-09T19:33:17.986Z,17.10
2018-09-09T19:35:48.933Z,17.10
2018-09-09T19:38:18.393Z,17.10
2018-09-09T19:40:47.408Z,17.20
2018-09-09T19:43:17.217Z,17.20
2018-09-09T19:45:47.295Z,17.20
2018-09-09T19:48:16.754Z,17.10
2018-09-09T19:50:49.023Z,17.00
2018-09-09T19:56:00.106Z,17.00
2018-09-09T19:58:29.421Z,16.90
2018-09-09T20:03:38.606Z,16.80
2018-09-09T20:06:07.724Z,16.80
2018-09-09T20:08:36.738Z,16.70
2018-09-09T20:11:05.905Z,16.60
2018-09-09T20:13:34.820Z,16.60
2018-09-09T20:16:03.824Z,16.60
2018-09-09T20:18:32.845Z,16.60
2018-09-09T20:21:01.946Z,16.60
2018-09-09T20:23:31.346Z,16.60
2018-09-09T20:26:00.824Z,16.50
2018-09-09T20:28:35.525Z,16.50
2018-09-09T20:31:06.563Z,16.40
2018-09-09T20:33:46.324Z,16.40
2018-09-09T20:39:37.986Z,16.50
2018-09-09T20:42:40.477Z,16.40
2018-09-09T20:45:38.090Z,16.30
2018-09-09T20:51:44.541Z,16.10
2018-09-09T20:54:26.695Z,16.20
2018-09-09T20:57:01.123Z,16.10
2018-09-09T20:59:34.873Z,16.10
2018-09-09T21:02:04.510Z,15.90
2018-09-09T21:04:33.590Z,15.90
2018-09-09T21:07:02.876Z,16.00
2018-09-09T21:09:34.102Z,16.00
2018-09-09T21:12:03.593Z,16.00
2018-09-09T21:14:33.083Z,15.90
2018-09-09T21:17:44.232Z,15.90
2018-09-09T21:20:15.096Z,15.90
2018-09-09T21:22:45.581Z,15.90
2018-09-09T21:25:14.837Z,15.90
2018-09-09T21:27:46.009Z,15.90
2018-09-09T21:30:17.698Z,15.90
2018-09-09T21:32:47.348Z,15.90
2018-09-09T21:35:22.883Z,15.60
2018-09-09T21:37:52.667Z,15.60
2018-09-09T21:40:38.928Z,15.50
2018-09-09T21:43:14.994Z,15.40
2018-09-09T21:45:47.135Z,15.50
2018-09-09T21:48:23.719Z,15.50
2018-09-09T21:50:56.319Z,15.60
2018-09-09T21:53:30.656Z,15.50
2018-09-09T21:56:01.193Z,15.50
2018-09-09T22:01:26.359Z,15.50
2018-09-09T22:03:57.739Z,15.50
2018-09-09T22:54:05.929Z,15.30
2018-09-09T22:56:34.740Z,14.90
2018-09-09T22:59:04.057Z,14.90
2018-09-09T23:01:33.038Z,14.90
2018-09-09T23:04:02.066Z,14.80
2018-09-09T23:06:33.710Z,14.60
2018-09-09T23:09:05.613Z,14.60
2018-09-09T23:11:34.629Z,14.70
2018-09-09T23:14:04.048Z,14.70
2018-09-09T23:16:33.574Z,14.80
2018-09-09T23:19:02.777Z,14.70
2018-09-09T23:21:31.811Z,14.60
2018-09-09T23:24:00.934Z,14.60
2018-09-09T23:26:30.045Z,14.60
2018-09-09T23:28:59.359Z,14.60
2018-09-09T23:31:29.105Z,14.60
2018-09-09T23:33:58.133Z,14.50
2018-09-09T23:36:27.249Z,14.60
2018-09-09T23:38:56.277Z,14.60
2018-09-09T23:41:25.482Z,14.60
2018-09-09T23:43:54.649Z,14.60
2018-09-09T23:46:23.840Z,14.50
2018-09-09T23:48:52.515Z,14.50
2018-09-09T23:51:21.508Z,14.50
2018-09-09T23:53:50.240Z,14.40
2018-09-09T23:56:18.968Z,14.50
2018-09-09T23:58:48.312Z,14.40
